Time;durP1;ratioP1;P1;durP2;ratioP2;P2;SDS_P1;SDS_P2;PMS_P1;PMS_P2;Temp;Humidity;BMP_temperature;BMP_pressure;BME280_temperature;BME280_humidity;BME280_pressure;Samples;Min_cycle;Max_cycle;Signal;HPM_P1;HPM_P2
2022/01/17 00:00:36;;;;;;;;;1.00;1.00;;;;;7.06;73.26;102976.22;5003453;28;10491;-69
2022/01/17 00:03:03;;;;;;;;;0.75;0.75;;;;;7.12;74.18;102971.34;5000594;28;10528;-69
2022/01/17 00:05:31;;;;;;;;;0.00;0.00;;;;;7.08;74.36;102993.13;5000140;28;10390;-70
2022/01/17 00:07:57;;;;;;;;;1.00;0.25;;;;;7.10;74.48;102988.47;4999335;28;10398;-69
2022/01/17 00:10:24;;;;;;;;;1.00;0.00;;;;;7.14;74.63;102988.25;5000628;28;11400;-69
2022/01/17 00:12:52;;;;;;;;;0.00;0.00;;;;;7.13;74.74;102997.31;5000139;28;10352;-71
2022/01/17 00:15:40;;;;;;;;;2.00;2.00;;;;;7.14;74.73;103005.28;5000634;28;10561;-70
2022/01/17 00:20:40;;;;;;;;;3.50;1.25;;;;;7.05;73.52;103001.44;5000486;28;10470;-70
2022/01/17 00:23:07;;;;;;;;;0.00;0.00;;;;;7.06;73.86;102996.91;5008000;28;10306;-70
2022/01/17 00:25:33;;;;;;;;;5.00;0.00;;;;;7.02;72.75;102979.25;5003114;28;10288;-70
2022/01/17 00:27:59;;;;;;;;;0.00;0.00;;;;;6.99;72.48;102995.66;5006008;28;10399;-70
2022/01/17 00:30:26;;;;;;;;;0.00;0.00;;;;;6.99;71.90;102998.34;5006380;28;11762;-69
2022/01/17 00:32:52;;;;;;;;;0.50;0.00;;;;;7.03;71.74;103003.38;5006955;28;10455;-71
2022/01/17 00:35:19;;;;;;;;;0.00;0.00;;;;;7.05;72.01;103006.81;5004341;28;10373;-71
2022/01/17 00:37:45;;;;;;;;;1.00;1.00;;;;;7.08;72.91;103005.72;5019590;28;10560;-69
2022/01/17 00:40:12;;;;;;;;;0.00;0.00;;;;;7.05;72.84;102997.88;5001470;28;11141;-69
2022/01/17 00:42:40;;;;;;;;;0.00;0.00;;;;;6.97;71.89;102992.22;5005719;28;10632;-72
2022/01/17 00:45:08;;;;;;;;;1.25;0.75;;;;;6.96;72.09;102985.97;5017183;28;10364;-72
2022/01/17 00:47:35;;;;;;;;;0.75;0.75;;;;;7.01;73.28;102982.94;5001800;28;10623;-69
2022/01/17 00:50:03;;;;;;;;;1.00;1.00;;;;;6.94;72.47;102979.84;5003825;28;10695;-70
2022/01/17 00:52:29;;;;;;;;;0.25;0.25;;;;;6.87;72.61;102966.91;5003197;28;10718;-73
2022/01/17 00:54:56;;;;;;;;;0.00;0.00;;;;;6.87;72.26;102972.28;5003770;28;10430;-70
2022/01/17 00:57:22;;;;;;;;;0.00;0.00;;;;;6.85;72.48;102976.94;5004308;28;10777;-70
2022/01/17 00:59:49;;;;;;;;;0.00;0.00;;;;;6.85;72.47;102980.50;5003374;28;10451;-70
2022/01/17 01:02:15;;;;;;;;;0.75;0.75;;;;;6.74;72.30;102985.81;5004823;28;10525;-70
2022/01/17 01:04:42;;;;;;;;;0.00;0.00;;;;;6.73;72.37;102989.47;5004820;28;10555;-69
2022/01/17 01:07:09;;;;;;;;;0.00;0.00;;;;;6.77;73.23;102986.44;5022972;22;10438;-71
2022/01/17 01:09:44;;;;;;;;;0.00;0.00;;;;;6.75;73.58;102979.44;5021693;28;10467;-69
2022/01/17 01:12:11;;;;;;;;;1.25;0.00;;;;;6.77;73.32;102996.34;5022976;28;10596;-70
2022/01/17 01:14:41;;;;;;;;;0.50;0.50;;;;;6.70;73.38;102995.09;5021507;28;10647;-70
2022/01/17 01:17:18;;;;;;;;;0.50;0.00;;;;;6.75;73.41;102999.16;5018654;28;10577;-70
2022/01/17 01:19:45;;;;;;;;;0.75;0.75;;;;;6.71;73.61;103002.19;5020275;28;10366;-69
2022/01/17 01:27:47;;;;;;;;;1.75;0.00;;;;;6.71;73.80;103024.56;5017087;28;10509;-70
2022/01/17 01:30:16;;;;;;;;;0.00;0.00;;;;;6.67;73.41;103025.75;5024379;28;10434;-70
2022/01/17 01:32:48;;;;;;;;;0.25;0.25;;;;;6.71;74.22;103042.56;5018855;28;10346;-70
2022/01/17 01:35:18;;;;;;;;;0.00;0.00;;;;;6.62;74.01;103038.66;5021610;28;10573;-70
2022/01/17 01:37:46;;;;;;;;;1.50;0.25;;;;;6.57;74.03;103030.06;5021740;28;10611;-70
2022/01/17 01:40:14;;;;;;;;;0.75;0.25;;;;;6.59;74.93;103021.88;5015209;28;10446;-70
2022/01/17 01:42:41;;;;;;;;;3.00;1.00;;;;;6.50;74.64;103011.78;5018615;28;10431;-70
2022/01/17 01:45:09;;;;;;;;;0.00;0.00;;;;;6.41;74.97;103021.34;5019178;28;10607;-69
2022/01/17 01:47:36;;;;;;;;;1.75;0.75;;;;;6.48;75.21;103015.44;5019710;28;10459;-70
2022/01/17 01:50:03;;;;;;;;;0.00;0.00;;;;;6.34;75.60;103018.25;5009307;28;10618;-69
2022/01/17 01:52:30;;;;;;;;;0.00;0.00;;;;;6.34;75.48;103015.56;5019363;28;10669;-70
2022/01/17 01:54:56;;;;;;;;;9.75;1.00;;;;;6.34;75.86;103007.47;5035455;28;10448;-69
2022/01/17 01:57:23;;;;;;;;;1.00;0.00;;;;;6.36;76.09;103010.94;5023640;28;10694;-70
2022/01/17 01:59:49;;;;;;;;;0.25;0.25;;;;;6.34;76.46;103003.94;5020443;28;10550;-70
2022/01/17 02:02:16;;;;;;;;;0.00;0.00;;;;;6.31;76.71;102999.63;5021023;28;10450;-70
2022/01/17 02:04:43;;;;;;;;;0.00;0.00;;;;;6.26;76.61;103001.78;5019184;28;10464;-70
2022/01/17 02:07:11;;;;;;;;;1.00;0.75;;;;;6.23;77.09;103004.69;5019717;28;10592;-70
2022/01/17 02:09:38;;;;;;;;;0.00;0.00;;;;;6.11;76.66;103006.41;5020335;28;10529;-70
2022/01/17 02:12:07;;;;;;;;;0.25;0.00;;;;;6.13;77.07;103001.78;5019381;28;10537;-70
2022/01/17 02:14:33;;;;;;;;;1.00;1.00;;;;;6.13;77.56;103022.44;5023489;28;10782;-70
2022/01/17 02:17:04;;;;;;;;;1.00;1.00;;;;;6.17;78.04;103024.78;5021368;28;10514;-70
2022/01/17 02:19:31;;;;;;;;;1.75;1.00;;;;;6.09;77.99;103029.84;5022450;28;10754;-69
2022/01/17 02:21:58;;;;;;;;;0.00;0.00;;;;;6.15;78.61;103033.94;5024258;28;10749;-69
2022/01/17 02:24:24;;;;;;;;;0.00;0.00;;;;;6.13;78.79;103034.03;5018700;28;10777;-70
2022/01/17 02:26:52;;;;;;;;;1.00;0.50;;;;;6.08;78.98;103040.72;5021856;28;10649;-70
2022/01/17 02:29:19;;;;;;;;;0.00;0.00;;;;;6.06;79.39;103030.06;5015837;28;10793;-70
2022/01/17 02:31:47;;;;;;;;;0.00;0.00;;;;;6.07;80.09;103030.94;5019030;28;10715;-69
2022/01/17 02:34:14;;;;;;;;;0.00;0.00;;;;;6.01;80.08;103025.97;5018770;28;10669;-70
2022/01/17 02:36:41;;;;;;;;;0.50;0.00;;;;;6.05;80.39;103027.47;5019253;28;10734;-69
2022/01/17 02:39:07;;;;;;;;;0.00;0.00;;;;;5.99;80.75;103014.47;5018294;28;10602;-70
2022/01/17 02:41:39;;;;;;;;;0.00;0.00;;;;;6.03;81.57;103022.22;5020302;28;10905;-69
2022/01/17 02:44:07;;;;;;;;;1.00;0.00;;;;;5.95;81.26;103021.91;5037865;28;10681;-70
2022/01/17 02:46:34;;;;;;;;;0.50;0.50;;;;;5.91;81.86;103020.34;5019405;28;11561;-69
2022/01/17 02:49:03;;;;;;;;;0.00;0.00;;;;;6.00;82.39;103017.06;5017616;28;10786;-70
2022/01/17 02:51:30;;;;;;;;;1.00;0.00;;;;;5.98;82.42;103007.38;5036961;28;10535;-70
2022/01/17 02:53:57;;;;;;;;;1.00;1.00;;;;;5.95;82.80;103011.13;5019215;28;10706;-69
2022/01/17 02:56:24;;;;;;;;;2.75;0.00;;;;;5.92;83.15;103014.00;5018812;28;10618;-69
2022/01/17 02:58:51;;;;;;;;;0.00;0.00;;;;;5.91;83.69;103014.13;5020765;28;10959;-69
2022/01/17 03:01:21;;;;;;;;;0.00;0.00;;;;;5.88;83.64;103002.56;5019341;28;10614;-70
2022/01/17 03:03:48;;;;;;;;;0.00;0.00;;;;;5.89;84.19;103003.44;5018035;28;10655;-69
2022/01/17 03:06:16;;;;;;;;;0.25;0.25;;;;;5.90;84.30;103001.66;5018606;28;11387;-70
2022/01/17 03:08:44;;;;;;;;;0.00;0.00;;;;;5.87;84.83;103000.00;5019890;28;11334;-69
2022/01/17 03:11:17;;;;;;;;;0.00;0.00;;;;;5.86;85.27;102993.75;5018065;28;10508;-69
2022/01/17 03:13:44;;;;;;;;;1.00;1.00;;;;;5.88;85.52;102985.59;5017866;28;10760;-69
2022/01/17 03:16:14;;;;;;;;;0.50;0.50;;;;;5.89;86.24;102990.00;5019558;28;10665;-69
2022/01/17 03:18:47;;;;;;;;;0.75;0.75;;;;;5.94;86.60;102992.41;5021223;28;10598;-69
2022/01/17 03:21:16;;;;;;;;;0.00;0.00;;;;;5.87;86.70;102992.78;5020118;28;11299;-69
2022/01/17 03:23:44;;;;;;;;;2.50;0.00;;;;;5.88;87.31;102985.59;5014185;28;10640;-69
2022/01/17 03:26:10;;;;;;;;;1.00;1.00;;;;;5.92;87.69;102991.66;5020198;28;10570;-69
2022/01/17 03:28:37;;;;;;;;;1.00;1.00;;;;;5.92;87.70;102987.13;5015850;28;11443;-69
2022/01/17 03:31:06;;;;;;;;;1.75;1.50;;;;;5.91;88.14;102992.63;5017105;28;10743;-69
2022/01/17 03:33:32;;;;;;;;;0.00;0.00;;;;;5.90;88.42;102997.13;5016635;28;10657;-69
2022/01/17 03:35:59;;;;;;;;;0.00;0.00;;;;;5.89;88.63;103000.75;5017397;28;10706;-69
2022/01/17 03:38:28;;;;;;;;;1.00;1.00;;;;;5.82;89.19;102997.63;5018608;28;10667;-69
2022/01/17 03:40:55;;;;;;;;;0.25;0.25;;;;;5.83;89.24;103001.19;5019855;28;10819;-69
2022/01/17 03:43:23;;;;;;;;;1.75;1.00;;;;;5.79;89.42;102991.59;5021414;28;11461;-69
2022/01/17 03:45:50;;;;;;;;;2.00;2.00;;;;;5.79;89.44;102997.84;5019122;28;11431;-69
2022/01/17 03:48:18;;;;;;;;;4.75;1.75;;;;;5.85;89.91;103002.78;5032045;28;10807;-69
2022/01/17 03:50:45;;;;;;;;;0.50;0.50;;;;;5.87;89.78;103002.69;5017407;28;10606;-69
2022/01/17 03:53:12;;;;;;;;;2.50;1.00;;;;;5.83;90.36;103026.22;5017024;28;10733;-69
2022/01/17 03:55:38;;;;;;;;;2.00;1.00;;;;;5.86;90.23;103026.03;5022131;28;10663;-69
2022/01/17 03:58:07;;;;;;;;;2.00;0.75;;;;;5.87;90.37;103027.75;5016335;28;10658;-69
2022/01/17 04:00:45;;;;;;;;;0.00;0.00;;;;;5.81;90.68;103025.47;5021046;28;10715;-69
2022/01/17 04:03:11;;;;;;;;;2.75;1.00;;;;;5.82;91.10;103023.66;5021166;28;10563;-69
2022/01/17 04:05:39;;;;;;;;;2.00;2.00;;;;;5.82;91.03;103034.41;5020557;28;10749;-69
2022/01/17 04:08:06;;;;;;;;;1.00;1.00;;;;;5.80;91.36;103030.97;5019483;28;10814;-69
2022/01/17 04:10:34;;;;;;;;;1.75;0.75;;;;;5.80;91.26;103039.03;5021513;28;10802;-69
2022/01/17 04:13:03;;;;;;;;;1.00;1.00;;;;;5.77;90.92;103037.41;5021204;28;10664;-69
2022/01/17 04:15:32;;;;;;;;;2.50;1.00;;;;;5.81;91.47;103040.75;5010116;28;10709;-69
2022/01/17 04:17:59;;;;;;;;;3.00;2.00;;;;;5.82;91.69;103035.25;5021858;28;10833;-69
2022/01/17 04:20:27;;;;;;;;;1.25;1.00;;;;;5.83;91.71;103028.06;5022550;28;10782;-69
2022/01/17 04:23:06;;;;;;;;;2.00;0.75;;;;;5.76;92.05;103027.63;5021902;28;10666;-69
2022/01/17 04:25:36;;;;;;;;;4.25;4.25;;;;;5.76;92.53;103027.63;5020177;28;10835;-70
2022/01/17 04:28:04;;;;;;;;;1.25;1.00;;;;;5.82;93.15;103031.72;5021204;28;10663;-69
2022/01/17 04:30:33;;;;;;;;;2.00;2.00;;;;;5.83;92.81;103031.59;5023958;28;10660;-69
2022/01/17 04:33:00;;;;;;;;;4.75;2.00;;;;;5.84;92.67;103029.78;5025902;28;10657;-69
2022/01/17 04:35:28;;;;;;;;;2.00;2.00;;;;;5.78;93.10;103032.88;5020966;28;10839;-69
2022/01/17 04:38:02;;;;;;;;;1.25;1.25;;;;;5.80;93.35;103036.34;5020983;28;10722;-69
2022/01/17 04:40:35;;;;;;;;;4.00;1.25;;;;;5.81;93.40;103028.16;5039462;28;10706;-69
2022/01/17 04:45:57;;;;;;;;;2.25;1.00;;;;;5.79;93.90;103027.41;5022199;28;11059;-69
2022/01/17 04:48:25;;;;;;;;;4.75;4.00;;;;;5.78;94.42;103023.00;5017931;28;10864;-71
2022/01/17 04:50:52;;;;;;;;;1.00;0.50;;;;;5.84;94.75;103029.78;5023545;28;10967;-70
2022/01/17 04:53:21;;;;;;;;;3.00;1.25;;;;;5.80;94.60;103021.06;5020994;28;10791;-70
2022/01/17 04:55:48;;;;;;;;;5.00;3.50;;;;;5.82;94.69;103032.56;5022588;28;10679;-71
2022/01/17 04:58:15;;;;;;;;;2.75;2.75;;;;;5.81;95.04;103028.16;5022685;28;10910;-72
2022/01/17 05:00:47;;;;;;;;;6.25;3.50;;;;;5.81;94.87;103022.78;5022237;28;10763;-71
2022/01/17 05:03:23;;;;;;;;;5.00;2.00;;;;;5.86;95.32;103031.41;5018499;28;10854;-70
2022/01/17 05:05:53;;;;;;;;;5.00;2.00;;;;;5.88;95.21;103032.16;5020178;28;10986;-70
2022/01/17 05:08:20;;;;;;;;;4.25;2.75;;;;;5.91;95.42;103035.63;5021519;28;11461;-70
2022/01/17 05:10:51;;;;;;;;;3.00;2.00;;;;;5.87;95.62;103043.88;5024546;28;10810;-70
2022/01/17 05:13:22;;;;;;;;;2.00;1.00;;;;;5.86;96.01;103046.66;5020610;28;10884;-71
2022/01/17 05:16:03;;;;;;;;;2.00;2.00;;;;;5.88;96.27;103036.66;5021067;28;10852;-70
2022/01/17 05:20:59;;;;;;;;;6.50;3.50;;;;;5.92;96.60;103046.28;5021577;28;10851;-70
2022/01/17 05:23:25;;;;;;;;;4.50;1.50;;;;;5.90;96.64;103050.91;5019842;28;10778;-71
2022/01/17 05:25:51;;;;;;;;;5.75;2.75;;;;;5.91;96.54;103052.63;5021927;28;10738;-72
2022/01/17 05:28:18;;;;;;;;;7.50;4.50;;;;;5.94;96.54;103047.03;5020510;28;10667;-71
2022/01/17 05:30:44;;;;;;;;;5.25;3.00;;;;;5.89;96.67;103041.06;5018680;28;10822;-71
2022/01/17 05:33:12;;;;;;;;;8.25;6.00;;;;;5.90;96.93;103039.28;5014638;28;11111;-71
2022/01/17 05:35:38;;;;;;;;;6.75;6.50;;;;;5.85;96.96;103044.94;5020634;28;10800;-71
2022/01/17 05:38:10;;;;;;;;;11.25;9.75;;;;;5.81;97.03;103048.81;5019751;28;10811;-72
2022/01/17 05:40:36;;;;;;;;;7.50;6.25;;;;;5.87;97.39;103049.25;5024927;28;10861;-71
2022/01/17 05:43:03;;;;;;;;;5.50;5.00;;;;;5.84;97.25;103043.22;5022213;28;10966;-71
2022/01/17 05:45:29;;;;;;;;;12.00;8.00;;;;;5.84;97.44;103038.72;5019295;28;11092;-71
2022/01/17 05:47:56;;;;;;;;;11.50;9.75;;;;;5.85;97.57;103043.13;5021148;28;11024;-71
2022/01/17 05:50:22;;;;;;;;;8.00;8.00;;;;;5.91;97.80;103041.00;5020487;28;11243;-71
2022/01/17 05:52:49;;;;;;;;;12.00;10.75;;;;;5.86;97.50;103038.59;5018245;28;11060;-71
2022/01/17 05:55:15;;;;;;;;;14.50;13.00;;;;;5.84;97.89;103040.53;5019256;28;11035;-71
2022/01/17 05:57:42;;;;;;;;;15.75;14.75;;;;;5.85;97.72;103039.56;5019907;28;11341;-70
2022/01/17 06:00:15;;;;;;;;;13.00;11.75;;;;;5.85;97.66;103053.88;5020938;28;11627;-71
2022/01/17 06:02:42;;;;;;;;;14.00;11.00;;;;;5.87;97.74;103056.44;5019825;28;11285;-69
2022/01/17 06:05:09;;;;;;;;;20.00;17.75;;;;;5.87;97.92;103051.06;5022294;28;11175;-69
2022/01/17 06:07:36;;;;;;;;;25.25;19.25;;;;;5.88;97.66;103067.09;5018974;28;11510;-69
2022/01/17 06:10:03;;;;;;;;;14.00;12.00;;;;;5.88;97.26;103058.16;5012680;28;11544;-69
2022/01/17 06:12:29;;;;;;;;;15.50;14.75;;;;;5.88;97.64;103055.47;5020089;28;11337;-70
2022/01/17 06:14:57;;;;;;;;;20.25;17.25;;;;;5.89;97.37;103062.56;5019115;28;11491;-69
2022/01/17 06:17:24;;;;;;;;;19.75;15.50;;;;;5.92;97.55;103053.47;5016477;28;11576;-70
2022/01/17 06:19:51;;;;;;;;;19.50;15.00;;;;;5.88;97.05;103053.66;5023648;28;11497;-69
2022/01/17 06:22:17;;;;;;;;;15.50;12.00;;;;;5.87;97.24;103067.19;5020516;28;11195;-69
2022/01/17 06:24:44;;;;;;;;;18.00;15.00;;;;;5.85;96.81;103061.94;5018497;28;11080;-70
2022/01/17 06:27:10;;;;;;;;;16.00;14.00;;;;;5.86;96.96;103065.47;5028424;28;11204;-69
2022/01/17 06:29:37;;;;;;;;;15.50;15.00;;;;;5.88;96.84;103068.91;5018972;28;11246;-69
2022/01/17 06:32:04;;;;;;;;;14.75;13.00;;;;;5.84;96.67;103064.72;5022421;28;11206;-69
2022/01/17 06:34:51;;;;;;;;;9.75;9.25;;;;;5.86;96.49;103062.78;5019932;28;11159;-69
2022/01/17 06:37:17;;;;;;;;;20.50;13.50;;;;;5.79;96.03;103053.44;5019364;28;11173;-71
2022/01/17 06:39:44;;;;;;;;;15.00;12.00;;;;;5.80;95.93;103058.69;5019849;28;11768;-70
2022/01/17 06:42:11;;;;;;;;;12.25;11.25;;;;;5.80;95.68;103073.97;5017982;28;11223;-70
2022/01/17 06:44:38;;;;;;;;;11.50;8.00;;;;;5.87;95.91;103054.63;5021775;28;10953;-71
2022/01/17 06:47:05;;;;;;;;;10.00;9.00;;;;;5.92;95.70;103067.78;5019541;28;11160;-70
2022/01/17 06:49:31;;;;;;;;;10.25;9.25;;;;;5.93;95.22;103072.19;5019781;28;11035;-70
2022/01/17 06:51:58;;;;;;;;;10.75;6.25;;;;;5.92;95.35;103083.03;5018364;28;11254;-70
2022/01/17 06:54:25;;;;;;;;;9.25;9.25;;;;;5.99;95.16;103096.00;5033619;28;11240;-70
2022/01/17 06:56:51;;;;;;;;;7.00;7.00;;;;;6.02;95.02;103100.28;5017666;28;10979;-70
2022/01/17 06:59:17;;;;;;;;;6.00;4.75;;;;;6.02;94.58;103103.84;5012454;28;10901;-70
2022/01/17 07:01:44;;;;;;;;;7.00;7.00;;;;;6.01;94.46;103110.19;5019619;28;10675;-71
2022/01/17 07:04:11;;;;;;;;;5.50;5.50;;;;;6.09;94.54;103137.41;5016537;28;10656;-72
2022/01/17 07:06:38;;;;;;;;;5.00;3.50;;;;;6.03;94.35;103150.41;5019457;28;10890;-70
2022/01/17 07:09:05;;;;;;;;;4.25;4.25;;;;;6.07;94.52;103146.56;5020731;28;10777;-70
2022/01/17 07:11:38;;;;;;;;;4.00;3.50;;;;;6.08;94.10;103151.81;5018417;28;10521;-70
2022/01/17 07:14:06;;;;;;;;;5.00;3.00;;;;;6.10;94.16;103151.72;5014437;28;10705;-69
2022/01/17 07:16:32;;;;;;;;;7.00;4.00;;;;;6.13;94.03;103138.94;5016558;28;10672;-70
2022/01/17 07:18:59;;;;;;;;;4.00;4.00;;;;;6.10;94.14;103136.44;5020165;28;10656;-70
2022/01/17 07:21:25;;;;;;;;;5.50;5.50;;;;;6.15;94.28;103136.13;5019023;28;10680;-69
2022/01/17 07:23:52;;;;;;;;;2.50;2.50;;;;;6.17;94.10;103134.19;5018662;28;10751;-70
2022/01/17 07:26:18;;;;;;;;;5.00;4.25;;;;;6.14;94.21;103135.28;5018954;28;11057;-70
2022/01/17 07:28:45;;;;;;;;;3.00;3.00;;;;;6.16;93.77;103146.78;5015103;28;10748;-72
2022/01/17 07:31:11;;;;;;;;;4.50;3.00;;;;;6.19;93.52;103145.72;5001327;28;10828;-70
2022/01/17 07:33:38;;;;;;;;;6.50;5.00;;;;;6.19;93.48;103137.66;5019478;28;10801;-71
2022/01/17 07:36:05;;;;;;;;;4.50;4.50;;;;;6.17;93.57;103140.44;5018845;28;10751;-71
2022/01/17 07:38:32;;;;;;;;;4.50;4.50;;;;;6.20;93.88;103158.22;5013698;28;10855;-71
2022/01/17 07:40:58;;;;;;;;;6.50;3.50;;;;;6.23;93.56;103166.09;5007562;28;10877;-71
2022/01/17 07:43:45;;;;;;;;;2.50;2.50;;;;;6.26;93.90;103157.81;5017945;28;10673;-68
2022/01/17 07:46:35;;;;;;;;;3.50;3.50;;;;;6.42;93.66;103162.97;5018643;28;10839;-69
2022/01/17 07:49:10;;;;;;;;;3.00;3.00;;;;;6.36;93.46;103169.66;5015230;28;10706;-70
2022/01/17 07:51:43;;;;;;;;;3.00;3.00;;;;;6.30;93.99;103167.38;5018826;28;10727;-69
2022/01/17 07:54:20;;;;;;;;;2.00;2.00;;;;;6.33;94.03;103171.69;5018262;28;10846;-70
2022/01/17 07:56:49;;;;;;;;;13.50;4.25;;;;;6.32;94.13;103178.91;5018284;28;10734;-70
2022/01/17 07:59:15;;;;;;;;;5.25;4.50;;;;;6.35;94.19;103180.50;5016495;28;10547;-69
2022/01/17 08:01:42;;;;;;;;;5.00;4.00;;;;;6.37;94.42;103182.13;5020374;28;11393;-70
2022/01/17 08:04:10;;;;;;;;;4.00;3.00;;;;;6.39;94.54;103173.97;5019310;28;10738;-70
2022/01/17 08:06:39;;;;;;;;;4.25;2.50;;;;;6.37;94.50;103174.06;5043205;28;10808;-71
2022/01/17 08:09:12;;;;;;;;;2.00;2.00;;;;;6.40;94.54;103179.22;5030643;28;10811;-70
2022/01/17 08:12:00;;;;;;;;;4.50;3.00;;;;;6.40;94.87;103164.91;5017988;28;10634;-70
2022/01/17 08:14:27;;;;;;;;;5.00;3.00;;;;;6.55;95.01;103163.88;5016999;28;10945;-70
2022/01/17 08:16:54;;;;;;;;;6.25;4.00;;;;;6.47;94.72;103167.09;5014073;28;10553;-71
2022/01/17 08:19:24;;;;;;;;;3.00;2.75;;;;;6.48;94.56;103163.44;5017244;28;10842;-71
2022/01/17 08:21:59;;;;;;;;;5.00;2.00;;;;;6.51;94.55;103164.19;5014944;28;10763;-71
2022/01/17 08:24:25;;;;;;;;;2.75;2.00;;;;;6.54;94.83;103156.78;4997921;28;10703;-70
2022/01/17 08:26:52;;;;;;;;;2.00;2.00;;;;;6.53;94.73;103164.94;5016071;28;10729;-71
2022/01/17 08:29:19;;;;;;;;;2.75;2.00;;;;;6.58;94.73;103179.81;5015374;28;10604;-70
2022/01/17 08:31:47;;;;;;;;;4.00;1.75;;;;;6.64;94.69;103178.53;5013324;28;10762;-71
2022/01/17 08:34:15;;;;;;;;;1.25;1.25;;;;;6.62;94.62;103180.47;5014841;28;10683;-71
2022/01/17 08:36:42;;;;;;;;;4.00;2.00;;;;;6.60;94.95;103180.56;5019193;28;10552;-71
2022/01/17 08:39:10;;;;;;;;;6.00;4.50;;;;;6.59;94.57;103169.91;5015823;28;10657;-70
2022/01/17 08:41:41;;;;;;;;;4.25;4.00;;;;;6.64;95.01;103181.22;5021332;28;10606;-70
2022/01/17 08:44:12;;;;;;;;;6.00;4.75;;;;;6.62;95.05;103175.06;5021580;28;11328;-71
2022/01/17 08:46:39;;;;;;;;;1.00;1.00;;;;;6.63;95.42;103180.34;5023745;28;10941;-71
2022/01/17 08:49:06;;;;;;;;;1.25;1.25;;;;;6.68;95.39;103185.41;5005536;28;10549;-71
2022/01/17 08:51:33;;;;;;;;;5.00;5.00;;;;;6.68;95.44;103186.28;5022702;28;11531;-70
2022/01/17 08:53:59;;;;;;;;;3.00;3.00;;;;;6.72;95.45;103187.81;5015562;28;10703;-70
2022/01/17 08:56:28;;;;;;;;;6.00;2.25;;;;;6.72;95.40;103190.50;5021358;28;10677;-71
2022/01/17 08:58:56;;;;;;;;;6.25;1.75;;;;;6.75;95.15;103200.19;5014747;28;10702;-70
2022/01/17 09:01:23;;;;;;;;;5.25;4.00;;;;;6.77;95.43;103192.88;5020402;28;10573;-71
2022/01/17 09:03:51;;;;;;;;;8.00;5.00;;;;;6.78;95.19;103199.97;5015479;28;10603;-70
2022/01/17 09:06:18;;;;;;;;;2.25;2.25;;;;;6.84;95.10;103194.16;5021158;28;10692;-70
2022/01/17 09:08:44;;;;;;;;;4.00;3.00;;;;;6.87;94.92;103196.63;5016122;28;10670;-70
2022/01/17 09:11:11;;;;;;;;;6.75;5.25;;;;;6.86;94.92;103199.44;5022409;28;10682;-69
2022/01/17 09:13:38;;;;;;;;;4.25;2.00;;;;;6.92;94.57;103205.25;5023081;28;10737;-69
2022/01/17 09:16:05;;;;;;;;;4.00;3.00;;;;;6.95;94.48;103214.97;5013625;28;10741;-71
2022/01/17 09:18:31;;;;;;;;;6.25;5.25;;;;;6.96;94.32;103219.38;5036437;28;11607;-69
2022/01/17 09:20:58;;;;;;;;;2.00;2.00;;;;;7.03;94.32;103224.22;5021033;28;11491;-70
2022/01/17 09:23:25;;;;;;;;;4.00;1.00;;;;;7.08;93.83;103222.06;5037579;28;10635;-70
2022/01/17 09:25:51;;;;;;;;;3.50;1.25;;;;;7.06;93.74;103224.00;5021910;28;10531;-70
2022/01/17 09:28:18;;;;;;;;;6.00;5.25;;;;;7.07;93.67;103228.44;5022282;28;10746;-70
2022/01/17 09:30:44;;;;;;;;;2.00;1.75;;;;;7.12;93.67;103238.00;5021008;28;10696;-70
2022/01/17 09:33:11;;;;;;;;;5.75;3.50;;;;;7.19;93.39;103237.50;5017086;28;10580;-70
2022/01/17 09:35:38;;;;;;;;;7.50;3.00;;;;;7.19;93.09;103250.06;5021449;28;10659;-70
2022/01/17 09:38:05;;;;;;;;;5.00;2.75;;;;;7.26;93.13;103236.09;5020872;28;10551;-70
2022/01/17 09:40:33;;;;;;;;;4.75;2.00;;;;;7.27;92.66;103235.09;5022566;28;11416;-70
2022/01/17 09:43:30;;;;;;;;;4.00;1.50;;;;;7.28;92.74;103239.53;5079518;28;10601;-72
2022/01/17 09:45:57;;;;;;;;;2.50;2.50;;;;;7.33;92.55;103255.34;5084945;28;10729;-72
2022/01/17 09:48:33;;;;;;;;;8.00;5.00;;;;;7.37;92.41;103263.13;5081384;28;11331;-71
2022/01/17 09:51:15;;;;;;;;;5.50;2.00;;;;;7.37;92.24;103260.41;5082618;28;10730;-72
2022/01/17 09:53:42;;;;;;;;;5.75;3.00;;;;;7.45;92.46;103256.34;5065168;28;10748;-71
2022/01/17 09:56:10;;;;;;;;;3.75;3.00;;;;;7.46;92.01;103264.31;5061774;28;10698;-71
2022/01/17 09:58:39;;;;;;;;;5.50;4.25;;;;;7.50;91.72;103270.34;5064705;28;10504;-72
2022/01/17 10:01:07;;;;;;;;;3.00;2.00;;;;;7.51;92.01;103263.97;5063921;28;10754;-72
2022/01/17 10:03:38;;;;;;;;;6.25;3.00;;;;;7.53;91.42;103279.06;5067837;28;10639;-72
2022/01/17 10:06:05;;;;;;;;;5.00;2.50;;;;;7.56;91.01;103275.28;5061576;28;11476;-72
2022/01/17 10:08:31;;;;;;;;;3.75;3.75;;;;;7.56;91.07;103283.38;5064277;28;10611;-71
2022/01/17 10:11:01;;;;;;;;;2.75;2.75;;;;;7.62;90.84;103291.03;5084233;28;10774;-72
2022/01/17 10:13:34;;;;;;;;;5.25;5.00;;;;;7.66;90.94;103288.00;5064848;28;10469;-72
2022/01/17 10:16:03;;;;;;;;;7.00;5.75;;;;;7.70;90.92;103297.59;5076798;28;10437;-73
2022/01/17 10:18:45;;;;;;;;;0.00;0.00;;;;;7.70;90.72;103303.00;5064657;28;10643;-72
2022/01/17 10:21:21;;;;;;;;;3.75;3.00;;;;;7.72;90.32;103292.97;5063165;28;10407;-71
2022/01/17 10:35:38;;;;;;;;;2.50;2.50;;;;;7.84;89.63;103320.00;5025758;28;10471;-72
2022/01/17 10:38:25;;;;;;;;;2.50;1.25;;;;;7.85;89.48;103314.50;5059224;28;10463;-71
2022/01/17 10:40:56;;;;;;;;;5.00;2.00;;;;;7.92;89.10;103326.56;5068765;28;10488;-71
2022/01/17 10:43:28;;;;;;;;;3.00;2.00;;;;;7.93;88.93;103319.34;5077728;28;10382;-71
2022/01/17 10:45:56;;;;;;;;;2.00;1.75;;;;;8.00;89.12;103315.25;5078592;28;10416;-74
2022/01/17 10:48:31;;;;;;;;;4.75;0.50;;;;;8.05;88.95;103304.97;5062052;28;10214;-71
2022/01/17 10:50:58;;;;;;;;;5.50;2.75;;;;;8.07;88.31;103307.56;5067241;28;10217;-72
2022/01/17 10:53:24;;;;;;;;;3.25;2.00;;;;;8.13;88.00;103299.00;5065220;28;10269;-71
2022/01/17 10:55:54;;;;;;;;;2.50;1.50;;;;;8.19;87.63;103295.88;5063782;28;10146;-73
2022/01/17 10:58:27;;;;;;;;;5.25;2.25;;;;;8.26;87.00;103316.03;5064963;28;10395;-71
2022/01/17 11:00:57;;;;;;;;;6.25;2.25;;;;;8.26;86.64;103319.59;5064831;28;10331;-71
2022/01/17 11:03:29;;;;;;;;;3.00;0.00;;;;;8.36;87.09;103310.84;5067067;28;10328;-71
2022/01/17 11:06:00;;;;;;;;;1.75;0.75;;;;;8.38;86.59;103317.84;5064051;28;10125;-73
2022/01/17 11:08:28;;;;;;;;;1.75;1.00;;;;;8.46;86.61;103318.16;5059574;28;10134;-73
2022/01/17 11:11:00;;;;;;;;;2.25;2.00;;;;;8.45;85.80;103313.72;5080059;28;10064;-71
2022/01/17 11:13:32;;;;;;;;;9.25;2.00;;;;;8.46;85.60;103331.66;5065084;28;10223;-72
2022/01/17 11:16:03;;;;;;;;;3.50;2.00;;;;;8.48;85.77;103335.09;5068977;28;10158;-71
2022/01/17 11:18:31;;;;;;;;;2.00;0.25;;;;;8.56;86.14;103332.69;5064611;28;10236;-71
2022/01/17 11:20:59;;;;;;;;;7.75;2.25;;;;;8.52;85.29;103333.88;5061046;28;10139;-71
2022/01/17 11:23:27;;;;;;;;;2.00;1.75;;;;;8.61;85.45;103352.09;5076330;28;10162;-71
2022/01/17 11:25:56;;;;;;;;;5.50;2.75;;;;;8.60;85.53;103350.38;5077035;28;10150;-71
2022/01/17 11:28:25;;;;;;;;;1.25;0.75;;;;;8.59;84.96;103345.09;5063175;28;10282;-73
2022/01/17 11:30:54;;;;;;;;;6.75;2.00;;;;;8.52;85.13;103344.69;5063449;28;10050;-72
2022/01/17 11:33:21;;;;;;;;;5.50;2.00;;;;;8.51;85.31;103347.50;5056645;28;10194;-71
2022/01/17 11:35:51;;;;;;;;;0.75;0.25;;;;;8.52;85.35;103346.53;5062928;28;10231;-71
2022/01/17 11:38:26;;;;;;;;;2.00;1.00;;;;;8.51;85.90;103344.81;5064792;28;10091;-72
2022/01/17 11:40:53;;;;;;;;;2.25;1.00;;;;;8.50;85.63;103335.84;5067400;28;9880;-72
2022/01/17 11:43:24;;;;;;;;;2.00;2.00;;;;;8.47;85.05;103346.88;5063061;28;10210;-72
2022/01/17 11:45:54;;;;;;;;;3.00;1.00;;;;;8.47;85.40;103354.97;5066793;28;10123;-72
2022/01/17 11:48:27;;;;;;;;;3.50;1.25;;;;;8.46;85.53;103357.78;5064910;28;11168;-72
2022/01/17 11:50:57;;;;;;;;;4.00;1.25;;;;;8.53;85.86;103359.06;5064323;28;10142;-72
2022/01/17 11:53:27;;;;;;;;;1.50;1.50;;;;;8.52;85.71;103371.69;5064599;28;10249;-72
2022/01/17 11:55:54;;;;;;;;;3.00;1.50;;;;;8.52;85.49;103378.94;5064860;28;10347;-72
2022/01/17 11:58:26;;;;;;;;;3.00;2.00;;;;;8.50;85.74;103386.28;5069340;28;10128;-73
2022/01/17 12:01:02;;;;;;;;;1.00;1.00;;;;;8.58;85.89;103389.25;5065048;28;10274;-72
2022/01/17 12:03:58;;;;;;;;;4.75;2.00;;;;;8.57;85.55;103372.19;5065113;28;10126;-71